Terminal Aerodrome Forecast
Issued by NWS

Current Version | Previous Version | Text Only | Print | Product List | Glossary On
Versions: 1 2 3 4 5 6 7 8 9 10 11 12 13 14 15 16
000
FTUS46 KMTR 210527
TAFSNS
TAF
KSNS 210527Z 2106/2206 30008KT 6SM BR OVC008
     FM211700 29010KT P6SM FEW012 SCT200
     FM220300 29008KT P6SM OVC008=

USA.gov is the U.S. government's official web portal to all federal, state and local government web resources and services.